Cowan, Indiana
Current Conditions -  °F | °C
As of 2:53 PM on Wednesday 28 Jan 2015 (Local Time) from KMIE Reporting Station
Clear Clear  
Wind Chill: 21°   Ceiling: Unl
Heat Index: 30°   Visibility: 10mi
Dew Point: 16°   Wind: 10mph
Humidity: 56%   Direction: 160°SSE
Pressure: 30.23"   Gusts: NA
Location:  40.1286°N, 85.3767°W
Report Text: KMIE 281953Z 16009KT 10SM CLR M01/M09 A3023 RMK AO2 SLP246 T10111089
Loading
Personal Weather Stations






























Interactive Weather Map New forecast layout! Learn more

10-Day Weather Forecast

Advertisements
Track Severe Weather on mobile